Time;durP1;ratioP1;P1;durP2;ratioP2;P2;SDS_P1;SDS_P2;PMS_P1;PMS_P2;Temp;Humidity;BMP_temperature;BMP_pressure;BME280_temperature;BME280_humidity;BME280_pressure;Samples;Min_cycle;Max_cycle;Signal;HPM_P1;HPM_P2
2022/04/13 00:01:23;;;;;;;18.60;11.80;;;;;;;4.11;60.81;99108.05;218384;1279;22656;-67
2022/04/13 00:06:26;;;;;;;15.10;11.20;;;;;;;4.12;60.83;99102.44;218207;1280;24464;-68
2022/04/13 00:11:32;;;;;;;17.40;11.30;;;;;;;4.13;60.86;99098.70;218180;1278;24298;-68
2022/04/13 00:16:35;;;;;;;17.20;10.50;;;;;;;4.11;60.88;99096.52;218496;1277;22737;-69
2022/04/13 00:21:38;;;;;;;15.70;10.50;;;;;;;4.07;60.68;99092.54;218514;1277;24330;-68
2022/04/13 00:26:41;;;;;;;18.80;10.70;;;;;;;4.02;60.70;99094.94;218391;1277;24244;-68
2022/04/13 00:32:10;;;;;;;18.70;10.80;;;;;;;3.99;61.02;99100.99;218180;1279;24391;-68
2022/04/13 00:37:12;;;;;;;18.00;10.90;;;;;;;3.97;61.10;99100.55;217765;1281;24181;-68
2022/04/13 00:42:17;;;;;;;18.50;11.40;;;;;;;3.90;61.03;99100.86;217845;1281;24422;-69
2022/04/13 00:47:20;;;;;;;14.50;10.00;;;;;;;3.81;61.11;99103.03;218143;1279;24348;-68
2022/04/13 00:52:26;;;;;;;19.00;12.00;;;;;;;3.71;61.27;99102.42;218365;1279;24292;-68
2022/04/13 00:57:31;;;;;;;18.00;11.40;;;;;;;3.62;61.39;99098.90;218179;1279;24296;-69
2022/04/13 01:02:36;;;;;;;19.40;11.60;;;;;;;3.53;61.51;99084.68;218021;1279;24473;-68
2022/04/13 01:07:41;;;;;;;22.30;13.00;;;;;;;3.47;61.92;99078.36;218186;1278;24365;-68
2022/04/13 01:12:43;;;;;;;17.80;11.30;;;;;;;3.41;61.90;99078.81;218406;1277;24257;-68
2022/04/13 01:17:48;;;;;;;16.80;10.60;;;;;;;3.36;62.08;99083.59;218368;1277;25456;-68
2022/04/13 01:22:51;;;;;;;18.90;12.50;;;;;;;3.35;62.21;99082.31;218323;1277;24349;-68
2022/04/13 01:27:53;;;;;;;15.50;10.70;;;;;;;3.31;62.46;99072.52;218333;1277;24928;-68
2022/04/13 01:32:55;;;;;;;22.60;11.60;;;;;;;3.24;62.65;99074.55;218340;1278;22712;-67
2022/04/13 01:37:59;;;;;;;16.20;11.90;;;;;;;3.15;62.77;99073.55;218500;1279;22545;-68
2022/04/13 01:43:02;;;;;;;16.60;11.10;;;;;;;3.02;62.93;99080.21;218465;1279;24310;-68
2022/04/13 01:48:04;;;;;;;18.20;12.50;;;;;;;2.90;63.22;99083.19;218632;1279;23004;-68
2022/04/13 01:53:09;;;;;;;18.70;11.80;;;;;;;2.83;63.73;99083.23;218565;1279;22549;-68
2022/04/13 01:58:12;;;;;;;17.00;11.50;;;;;;;2.74;63.67;99082.40;218515;1279;22548;-67
2022/04/13 02:03:25;;;;;;;20.10;11.60;;;;;;;2.68;64.01;99085.60;218403;1279;22663;-68
2022/04/13 02:08:31;;;;;;;19.50;11.50;;;;;;;2.66;63.89;99092.95;218117;1278;22549;-68
2022/04/13 02:13:34;;;;;;;19.60;11.30;;;;;;;2.66;64.08;99093.64;218331;1277;22541;-68
2022/04/13 02:18:36;;;;;;;16.60;10.20;;;;;;;2.72;64.27;99098.02;218536;1277;22551;-68
2022/04/13 02:23:39;;;;;;;16.40;10.10;;;;;;;2.71;64.21;99092.34;218225;1277;23135;-68
2022/04/13 02:28:42;;;;;;;17.00;11.30;;;;;;;2.72;64.28;99091.88;218454;1277;25521;-69
2022/04/13 02:33:45;;;;;;;15.60;11.00;;;;;;;2.75;64.27;99095.53;218426;1279;24148;-68
2022/04/13 02:38:47;;;;;;;17.40;11.30;;;;;;;2.65;64.23;99101.07;218686;1279;25538;-68
2022/04/13 02:43:49;;;;;;;16.40;11.30;;;;;;;2.53;64.38;99107.45;218658;1279;22718;-69
2022/04/13 02:48:52;;;;;;;18.10;12.20;;;;;;;2.44;64.72;99108.61;218708;1279;22567;-67
2022/04/13 02:53:54;;;;;;;20.10;12.50;;;;;;;2.36;64.66;99103.83;218259;1279;22718;-67
2022/04/13 02:58:56;;;;;;;24.40;13.70;;;;;;;2.28;64.88;99107.61;218289;1277;23338;-68
2022/04/13 03:03:59;;;;;;;18.90;13.10;;;;;;;2.17;65.07;99102.55;218498;1279;22581;-68
2022/04/13 03:09:03;;;;;;;17.90;11.90;;;;;;;2.08;65.45;99107.33;218338;1277;22507;-68
2022/04/13 03:14:05;;;;;;;18.30;12.40;;;;;;;2.02;65.62;99107.96;218438;1277;22938;-69
2022/04/13 03:19:08;;;;;;;18.30;11.70;;;;;;;1.92;65.66;99107.69;218383;1277;26515;-68
2022/04/13 03:24:10;;;;;;;22.60;13.10;;;;;;;1.81;65.82;99108.20;218427;1277;25430;-69
2022/04/13 03:29:12;;;;;;;19.60;12.40;;;;;;;1.75;66.38;99109.24;218269;1277;25367;-68
2022/04/13 03:34:20;;;;;;;19.20;13.20;;;;;;;1.67;66.42;99104.42;218368;1279;24264;-68
2022/04/13 03:39:26;;;;;;;23.30;13.20;;;;;;;1.60;66.51;99105.73;218333;1279;25395;-68
2022/04/13 03:44:29;;;;;;;22.90;12.90;;;;;;;1.59;66.58;99112.92;218008;1279;22541;-68
2022/04/13 03:49:31;;;;;;;21.90;13.00;;;;;;;1.64;66.88;99124.41;218248;1279;22557;-68
2022/04/13 03:54:34;;;;;;;20.40;13.20;;;;;;;1.69;66.96;99125.70;218248;1279;22959;-67
2022/04/13 03:59:36;;;;;;;20.70;11.60;;;;;;;1.73;66.80;99125.56;218366;1279;22567;-68
2022/04/13 04:04:38;;;;;;;20.00;12.80;;;;;;;1.77;66.78;99127.11;218350;1279;23180;-67
2022/04/13 04:09:44;;;;;;;22.00;14.20;;;;;;;1.79;66.76;99122.73;218452;1279;24319;-68
2022/04/13 04:14:46;;;;;;;24.10;13.60;;;;;;;1.77;66.73;99118.29;218288;1279;25417;-68
2022/04/13 04:19:48;;;;;;;21.80;13.60;;;;;;;1.75;67.00;99121.23;218281;1279;25329;-68
2022/04/13 04:24:51;;;;;;;25.30;14.00;;;;;;;1.75;67.05;99129.52;218272;1279;24254;-69
2022/04/13 04:29:53;;;;;;;22.10;14.00;;;;;;;1.77;67.28;99129.75;218218;1279;22556;-68
2022/04/13 04:34:55;;;;;;;26.10;15.50;;;;;;;1.80;67.12;99134.36;218360;1279;23557;-68
2022/04/13 04:39:58;;;;;;;26.40;15.10;;;;;;;1.83;67.36;99136.17;218576;1279;22832;-67
2022/04/13 04:45:00;;;;;;;27.70;14.60;;;;;;;1.88;67.49;99136.02;218456;1279;22812;-68
2022/04/13 04:50:13;;;;;;;24.90;15.40;;;;;;;1.98;67.72;99144.17;218421;1279;22759;-68
2022/04/13 04:55:17;;;;;;;22.40;15.00;;;;;;;2.06;67.79;99150.09;218343;1279;22703;-68
2022/04/13 05:00:22;;;;;;;30.40;16.20;;;;;;;2.16;67.92;99153.52;218658;1279;24406;-68
2022/04/13 05:05:25;;;;;;;26.40;16.10;;;;;;;2.31;68.06;99157.30;218545;1279;24775;-68
2022/04/13 05:10:27;;;;;;;24.10;17.00;;;;;;;2.45;68.14;99159.31;218277;1279;24258;-69
2022/04/13 05:15:30;;;;;;;25.30;16.10;;;;;;;2.66;68.38;99161.57;218462;1279;22609;-68
2022/04/13 05:20:33;;;;;;;25.90;17.30;;;;;;;2.94;68.32;99160.86;218695;1279;22599;-67
2022/04/13 05:25:36;;;;;;;26.60;18.40;;;;;;;3.16;67.77;99163.82;218904;1279;22554;-67
2022/04/13 05:30:39;;;;;;;29.80;19.40;;;;;;;3.33;67.31;99167.68;218608;1279;22556;-68
2022/04/13 05:35:45;;;;;;;32.20;20.50;;;;;;;3.52;67.36;99172.23;218476;1279;22699;-67
2022/04/13 05:40:54;;;;;;;26.80;17.80;;;;;;;3.74;67.52;99175.62;218619;1279;22684;-68
2022/04/13 05:45:57;;;;;;;27.10;17.80;;;;;;;3.97;67.13;99181.17;218181;1279;22633;-68
2022/04/13 05:51:02;;;;;;;26.30;18.40;;;;;;;4.18;66.86;99188.46;218233;1279;22595;-68
2022/04/13 05:56:06;;;;;;;28.00;18.80;;;;;;;4.42;66.71;99199.83;218142;1279;24159;-69
2022/04/13 06:01:09;;;;;;;32.80;19.60;;;;;;;4.65;66.65;99201.08;218081;1279;23973;-68
2022/04/13 06:06:12;;;;;;;30.50;19.60;;;;;;;4.87;66.19;99201.38;218283;1279;24151;-69
2022/04/13 06:11:15;;;;;;;32.30;20.80;;;;;;;5.03;65.66;99202.94;218084;1279;25264;-68
2022/04/13 06:16:19;;;;;;;30.40;20.10;;;;;;;5.25;65.78;99208.91;218104;1278;25332;-67
2022/04/13 06:21:25;;;;;;;29.90;21.50;;;;;;;5.48;65.61;99211.45;218095;1279;23717;-68
2022/04/13 06:26:27;;;;;;;27.60;19.70;;;;;;;5.72;65.76;99213.52;218350;1279;24234;-69
2022/04/13 06:31:31;;;;;;;29.40;18.90;;;;;;;6.07;65.70;99212.82;218036;1279;26480;-68
2022/04/13 06:36:34;;;;;;;19.10;13.80;;;;;;;6.48;64.99;99212.95;218478;1279;25569;-67
2022/04/13 06:41:39;;;;;;;16.40;12.30;;;;;;;6.83;63.76;99210.59;218336;1279;25625;-69
2022/04/13 06:46:42;;;;;;;18.70;12.70;;;;;;;7.09;62.69;99216.08;218255;1278;22576;-69
2022/04/13 06:51:50;;;;;;;18.40;13.50;;;;;;;7.32;61.75;99221.27;218221;1278;22610;-69
2022/04/13 06:56:54;;;;;;;21.10;15.20;;;;;;;7.56;61.29;99226.92;217827;1279;24371;-69
2022/04/13 07:01:57;;;;;;;22.50;12.90;;;;;;;7.80;61.26;99230.27;218256;1279;22969;-68
2022/04/13 07:07:03;;;;;;;16.40;12.50;;;;;;;8.01;60.52;99235.64;217882;1278;24336;-67
2022/04/13 07:12:07;;;;;;;20.80;12.50;;;;;;;8.23;60.30;99237.71;218575;1279;25413;-67
2022/04/13 07:17:10;;;;;;;18.00;13.20;;;;;;;8.51;59.90;99243.48;218140;1279;22593;-68
2022/04/13 07:22:13;;;;;;;17.40;12.30;;;;;;;8.78;59.57;99248.69;218788;1278;22574;-68
2022/04/13 07:27:16;;;;;;;17.00;11.80;;;;;;;9.08;59.05;99248.56;218403;1279;287261;-68
2022/04/13 07:32:19;;;;;;;17.80;11.50;;;;;;;9.35;58.32;99258.28;218306;1279;22605;-68
2022/04/13 07:37:22;;;;;;;20.30;12.10;;;;;;;9.55;57.65;99256.35;218433;1278;22641;-68
2022/04/13 07:42:27;;;;;;;14.70;11.40;;;;;;;9.74;57.15;99250.76;217698;1279;22588;-68
2022/04/13 07:47:32;;;;;;;17.10;13.60;;;;;;;9.96;57.09;99247.75;217549;1279;22629;-68
2022/04/13 07:52:40;;;;;;;17.00;12.20;;;;;;;10.19;56.59;99246.17;218156;1277;22685;-67
2022/04/13 07:57:45;;;;;;;17.00;12.90;;;;;;;10.38;56.56;99245.95;223940;1279;22497;-68
2022/04/13 08:02:51;;;;;;;19.60;13.90;;;;;;;10.61;56.14;99241.88;217653;1279;25409;-67
2022/04/13 08:07:54;;;;;;;17.00;14.00;;;;;;;10.78;55.77;99246.98;218757;1279;22557;-67
2022/04/13 08:12:57;;;;;;;17.60;13.90;;;;;;;10.97;55.33;99248.56;217613;1279;26028;-67
2022/04/13 08:18:00;;;;;;;16.10;11.40;;;;;;;11.15;54.81;99248.16;217598;1279;24331;-68
2022/04/13 08:23:03;;;;;;;14.90;11.60;;;;;;;11.33;54.34;99243.83;219302;1278;22559;-68
2022/04/13 08:28:05;;;;;;;14.00;11.30;;;;;;;11.50;53.99;99238.11;217665;1279;22553;-67
2022/04/13 08:33:08;;;;;;;15.20;10.60;;;;;;;11.67;53.13;99238.21;217457;1279;25785;-69
2022/04/13 08:38:11;;;;;;;14.70;10.80;;;;;;;11.83;53.10;99243.30;217739;1279;25377;-68
2022/04/13 08:43:30;;;;;;;14.30;11.40;;;;;;;12.03;52.64;99241.61;218325;1279;22724;-69
2022/04/13 08:48:35;;;;;;;15.30;11.30;;;;;;;12.22;52.45;99238.65;221324;1278;22973;-68
2022/04/13 08:53:43;;;;;;;15.40;11.40;;;;;;;12.46;52.15;99239.80;220198;1279;25420;-69
2022/04/13 08:58:57;;;;;;;15.10;11.10;;;;;;;12.65;51.96;99235.17;220044;1278;24243;-68
2022/04/13 09:04:07;;;;;;;14.60;9.80;;;;;;;12.90;51.38;99229.77;220745;1278;23196;-68
2022/04/13 09:09:30;;;;;;;13.70;11.50;;;;;;;13.05;50.79;99224.21;221317;1277;23947;-67
2022/04/13 09:14:34;;;;;;;14.80;10.60;;;;;;;13.27;50.49;99225.90;217822;1279;24805;-67
2022/04/13 09:19:38;;;;;;;14.30;11.10;;;;;;;13.44;49.62;99221.77;218121;1279;24232;-67
2022/04/13 09:24:41;;;;;;;11.80;8.20;;;;;;;13.57;48.82;99215.35;217899;1279;22558;-68
2022/04/13 09:29:44;;;;;;;13.30;6.80;;;;;;;13.74;48.41;99210.67;218050;1279;22635;-68
2022/04/13 09:34:47;;;;;;;12.00;6.70;;;;;;;14.01;48.11;99207.88;218122;1279;22608;-68
2022/04/13 09:39:50;;;;;;;10.40;7.60;;;;;;;14.26;47.17;99203.83;218008;1279;22586;-67
2022/04/13 09:44:57;;;;;;;12.70;8.10;;;;;;;14.40;46.39;99202.16;217800;1279;22557;-68
2022/04/13 09:50:01;;;;;;;9.80;6.60;;;;;;;14.55;46.24;99199.73;219925;1279;22674;-68
2022/04/13 09:55:10;;;;;;;11.30;7.00;;;;;;;14.72;45.45;99201.77;218853;1279;22581;-68
2022/04/13 10:00:17;;;;;;;10.30;6.90;;;;;;;14.90;45.54;99199.88;221221;1278;26041;-68
2022/04/13 10:05:23;;;;;;;11.70;7.50;;;;;;;15.02;44.57;99197.23;218376;1279;24116;-69
2022/04/13 10:10:28;;;;;;;12.20;7.60;;;;;;;15.13;44.12;99192.69;217627;1278;25486;-67
2022/04/13 10:15:31;;;;;;;14.00;8.60;;;;;;;15.29;44.34;99196.23;218930;1278;22716;-67
2022/04/13 10:20:47;;;;;;;12.00;7.70;;;;;;;15.48;43.93;99193.42;220061;1279;23824;-67
2022/04/13 10:25:57;;;;;;;12.50;7.90;;;;;;;15.64;43.68;99185.98;218227;1279;22605;-67
2022/04/13 10:31:08;;;;;;;11.20;7.80;;;;;;;15.73;43.05;99188.28;218063;1279;22735;-67
2022/04/13 10:36:11;;;;;;;11.40;8.00;;;;;;;15.81;42.82;99191.38;217939;1279;22560;-68
2022/04/13 10:41:22;;;;;;;12.50;8.40;;;;;;;15.94;43.03;99189.39;218485;1279;26413;-67
2022/04/13 10:46:25;;;;;;;11.00;7.70;;;;;;;16.14;42.74;99181.91;218996;1279;25216;-68
2022/04/13 10:51:31;;;;;;;12.10;7.70;;;;;;;16.20;41.95;99178.09;220398;1279;23746;-67
2022/04/13 10:56:42;;;;;;;10.20;6.80;;;;;;;16.33;42.07;99177.38;218472;1279;25326;-67
2022/04/13 11:02:04;;;;;;;11.20;7.00;;;;;;;16.50;41.97;99176.18;217938;1279;23057;-67
2022/04/13 11:07:09;;;;;;;11.10;7.90;;;;;;;16.63;41.35;99167.66;218389;1279;22528;-67
2022/04/13 11:12:12;;;;;;;11.70;8.30;;;;;;;16.74;40.59;99172.52;218042;1279;25258;-68
2022/04/13 11:17:16;;;;;;;11.60;7.90;;;;;;;16.80;40.50;99174.65;217821;1279;24316;-68
2022/04/13 11:22:19;;;;;;;11.80;7.70;;;;;;;16.93;40.97;99170.96;219471;1279;22573;-68
2022/04/13 11:27:23;;;;;;;12.70;8.10;;;;;;;17.10;40.62;99173.17;217639;1279;22611;-68
2022/04/13 11:32:31;;;;;;;12.40;7.50;;;;;;;17.13;40.13;99176.86;217679;1279;22588;-68
2022/04/13 11:37:35;;;;;;;12.80;8.40;;;;;;;17.07;39.57;99171.80;218344;1279;22695;-69
2022/04/13 11:42:38;;;;;;;11.10;7.40;;;;;;;17.16;40.08;99179.52;218632;1279;22545;-67
2022/04/13 11:47:53;;;;;;;11.20;7.40;;;;;;;17.25;39.64;99173.88;217878;1279;24882;-67
2022/04/13 11:52:58;;;;;;;13.00;7.70;;;;;;;17.40;39.60;99168.23;217742;1279;22683;-68
2022/04/13 11:58:08;;;;;;;10.60;7.20;;;;;;;17.51;39.44;99167.89;218256;1279;22719;-68
2022/04/13 12:03:20;;;;;;;10.80;7.40;;;;;;;17.58;39.25;99157.73;217981;1279;22528;-67
2022/04/13 12:08:53;;;;;;;13.80;8.10;;;;;;;17.70;38.95;99142.72;221170;1279;24374;-68
2022/04/13 12:13:59;;;;;;;10.40;7.60;;;;;;;17.82;38.70;99133.17;218372;1279;22544;-67
2022/04/13 12:19:11;;;;;;;13.70;7.80;;;;;;;17.94;38.34;99124.54;217652;1279;22544;-68
2022/04/13 12:24:13;;;;;;;9.70;7.40;;;;;;;18.08;38.51;99122.30;217712;1279;22927;-68
2022/04/13 12:29:18;;;;;;;10.20;7.00;;;;;;;18.23;38.23;99113.64;217601;1279;22565;-68
2022/04/13 12:34:22;;;;;;;11.00;8.00;;;;;;;18.29;37.63;99111.23;217802;1279;22862;-68
2022/04/13 12:39:33;;;;;;;11.40;7.60;;;;;;;18.40;37.89;99111.30;219131;1279;23184;-68
2022/04/13 12:44:45;;;;;;;10.40;7.40;;;;;;;18.60;37.95;99099.45;218754;1279;24260;-68
2022/04/13 12:50:00;;;;;;;10.90;7.90;;;;;;;18.77;37.77;99089.20;217951;1279;24227;-68
2022/04/13 12:55:09;;;;;;;10.00;7.00;;;;;;;18.98;37.56;99086.64;218960;1279;24623;-68
2022/04/13 13:00:47;;;;;;;9.90;7.30;;;;;;;19.08;36.94;99081.95;220727;1279;22745;-69
2022/04/13 13:05:52;;;;;;;9.30;6.80;;;;;;;19.10;36.46;99080.85;218709;1279;24777;-69
2022/04/13 13:10:58;;;;;;;11.30;7.70;;;;;;;19.13;36.18;99082.41;217922;1279;22567;-67
2022/04/13 13:16:01;;;;;;;9.10;7.10;;;;;;;19.18;35.93;99081.17;217990;1279;22541;-68
2022/04/13 13:21:03;;;;;;;10.30;7.30;;;;;;;19.19;35.93;99075.72;217411;1281;22622;-68
2022/04/13 13:26:08;;;;;;;11.20;7.60;;;;;;;19.20;36.02;99074.95;218027;1278;24321;-68
2022/04/13 13:31:13;;;;;;;9.00;6.70;;;;;;;19.17;36.17;99071.14;217898;1279;22551;-68
2022/04/13 13:36:17;;;;;;;9.90;6.60;;;;;;;19.32;36.17;99075.27;217952;1279;25546;-68
2022/04/13 13:41:21;;;;;;;10.10;6.90;;;;;;;19.36;35.16;99075.22;220021;1279;22564;-68
2022/04/13 13:46:25;;;;;;;9.80;7.20;;;;;;;19.30;35.09;99071.42;218251;1280;22703;-68
2022/04/13 13:51:28;;;;;;;11.40;7.10;;;;;;;19.35;34.89;99070.38;217918;1279;24286;-68
2022/04/13 13:56:31;;;;;;;10.00;6.80;;;;;;;19.43;34.63;99063.17;217861;1279;24230;-69
2022/04/13 14:01:39;;;;;;;10.40;6.30;;;;;;;19.54;34.94;99058.80;218001;1280;22564;-69
2022/04/13 14:06:42;;;;;;;8.70;5.90;;;;;;;19.69;35.00;99054.82;218449;1280;22973;-69
2022/04/13 14:11:48;;;;;;;8.10;6.60;;;;;;;19.75;34.78;99056.56;218726;1280;22556;-69
2022/04/13 14:16:53;;;;;;;9.80;7.10;;;;;;;19.85;34.58;99054.92;218454;1280;22727;-69
2022/04/13 14:21:57;;;;;;;9.50;7.30;;;;;;;19.87;34.47;99048.24;218489;1277;25373;-69
2022/04/13 14:27:00;;;;;;;7.90;6.00;;;;;;;19.93;34.71;99037.77;218278;1281;24258;-69
2022/04/13 14:32:05;;;;;;;9.80;6.20;;;;;;;20.00;34.18;99039.60;218952;1280;22567;-69
2022/04/13 14:37:08;;;;;;;9.20;6.40;;;;;;;19.98;34.11;99037.67;218877;1280;24260;-70
2022/04/13 14:42:13;;;;;;;8.70;5.90;;;;;;;19.81;34.22;99032.98;219494;1281;22566;-70
2022/04/13 14:47:15;;;;;;;8.70;6.40;;;;;;;19.68;34.65;99037.73;218958;1279;22578;-69
2022/04/13 14:52:18;;;;;;;9.70;6.80;;;;;;;19.55;34.69;99033.35;218800;1281;24151;-69
2022/04/13 14:57:22;;;;;;;9.20;6.10;;;;;;;19.39;35.27;99033.02;218729;1279;22554;-70
2022/04/13 15:02:25;;;;;;;8.80;5.30;;;;;;;19.25;35.33;99027.79;218670;1280;22644;-69
2022/04/13 15:07:29;;;;;;;7.80;5.90;;;;;;;19.17;35.90;99028.63;218716;1278;22693;-69
2022/04/13 15:12:34;;;;;;;9.40;6.40;;;;;;;19.09;35.97;99028.60;218801;1280;22556;-70
2022/04/13 15:17:37;;;;;;;6.90;5.20;;;;;;;19.05;36.41;99029.86;218535;1281;22589;-70
2022/04/13 15:22:44;;;;;;;8.10;6.50;;;;;;;19.01;36.57;99031.29;218561;1281;22542;-69
2022/04/13 15:27:47;;;;;;;12.90;8.30;;;;;;;18.92;36.68;99032.48;218642;1281;24255;-69
2022/04/13 15:32:51;;;;;;;10.50;7.00;;;;;;;18.79;36.64;99032.66;218711;1280;24827;-70
2022/04/13 15:37:55;;;;;;;8.20;6.20;;;;;;;18.62;36.10;99030.36;218812;1280;24265;-69
2022/04/13 15:42:59;;;;;;;10.90;6.80;;;;;;;18.42;35.90;99035.21;218407;1281;25457;-69
2022/04/13 15:48:03;;;;;;;11.60;7.50;;;;;;;18.28;35.99;99036.95;218753;1281;22552;-70
2022/04/13 15:53:08;;;;;;;10.80;6.60;;;;;;;18.15;35.81;99038.30;218503;1281;22733;-69
2022/04/13 15:58:12;;;;;;;9.70;6.60;;;;;;;18.00;36.06;99038.21;219610;1280;26034;-70
2022/04/13 16:03:22;;;;;;;9.60;6.60;;;;;;;17.89;36.48;99039.42;218228;1281;22566;-70
2022/04/13 16:08:25;;;;;;;12.60;7.00;;;;;;;17.78;36.83;99041.08;218905;1278;22582;-69
2022/04/13 16:13:28;;;;;;;10.90;7.30;;;;;;;17.64;37.13;99042.31;218659;1277;26384;-69
2022/04/13 16:18:31;;;;;;;13.10;8.60;;;;;;;17.50;37.26;99044.89;218889;1281;25405;-69
2022/04/13 16:23:34;;;;;;;18.00;11.20;;;;;;;17.34;37.02;99047.29;218415;1281;25913;-69
2022/04/13 16:28:36;;;;;;;13.30;8.60;;;;;;;17.16;36.80;99049.69;218614;1280;23809;-70
2022/04/13 16:33:39;;;;;;;13.00;9.20;;;;;;;17.02;37.02;99050.67;219010;1278;25222;-70
2022/04/13 16:38:44;;;;;;;17.80;9.10;;;;;;;16.94;37.24;99045.54;218874;1279;22494;-70
2022/04/13 16:43:48;;;;;;;12.90;8.60;;;;;;;16.86;37.11;99048.48;218804;1281;26180;-69
2022/04/13 16:48:51;;;;;;;13.10;8.60;;;;;;;16.75;36.89;99040.19;218549;1281;25319;-71
2022/04/13 16:53:54;;;;;;;11.50;7.70;;;;;;;16.62;36.70;99033.45;218613;1280;25476;-69
2022/04/13 16:58:58;;;;;;;11.60;8.00;;;;;;;16.46;36.46;99035.80;218832;1281;22573;-70
2022/04/13 17:04:05;;;;;;;12.80;8.80;;;;;;;16.30;36.48;99033.46;218606;1279;22546;-70
2022/04/13 17:09:17;;;;;;;12.20;9.30;;;;;;;16.10;36.60;99038.41;218792;1280;22623;-69
2022/04/13 17:14:23;;;;;;;17.90;11.20;;;;;;;15.85;37.15;99041.23;218360;1280;22758;-69
2022/04/13 17:19:26;;;;;;;30.10;17.60;;;;;;;15.59;37.47;99042.52;218226;1280;22579;-69
2022/04/13 17:24:30;;;;;;;34.50;17.70;;;;;;;15.34;37.59;99046.30;218705;1279;22709;-70
2022/04/13 17:29:33;;;;;;;30.10;17.10;;;;;;;15.11;37.76;99041.55;218812;1280;22580;-70
2022/04/13 17:34:36;;;;;;;28.40;15.30;;;;;;;14.89;38.11;99042.45;218804;1280;22773;-70
2022/04/13 17:39:38;;;;;;;30.70;15.30;;;;;;;14.67;38.58;99044.99;218617;1279;24254;-69
2022/04/13 17:44:42;;;;;;;30.70;15.90;;;;;;;14.41;39.08;99049.34;218780;1279;24792;-70
2022/04/13 17:49:45;;;;;;;26.80;16.10;;;;;;;14.17;39.56;99052.21;218481;1280;22736;-70
2022/04/13 17:54:50;;;;;;;25.40;16.20;;;;;;;13.94;40.49;99055.42;218530;1280;22618;-69
2022/04/13 17:59:53;;;;;;;22.30;13.40;;;;;;;13.66;40.74;99062.12;218518;1279;22583;-70
2022/04/13 18:04:59;;;;;;;22.40;13.10;;;;;;;13.38;41.31;99066.11;218364;1277;22575;-69
2022/04/13 18:10:11;;;;;;;21.70;13.20;;;;;;;13.13;42.23;99077.29;218782;1277;22727;-70
2022/04/13 18:15:22;;;;;;;20.30;11.70;;;;;;;12.85;42.80;99078.30;218847;1279;22569;-69
2022/04/13 18:20:30;;;;;;;18.60;10.70;;;;;;;12.70;42.96;99080.94;218637;1279;22564;-70
2022/04/13 18:25:37;;;;;;;15.70;10.40;;;;;;;12.59;43.36;99087.14;218646;1279;22622;-69
2022/04/13 18:30:42;;;;;;;11.80;8.70;;;;;;;12.48;43.58;99097.31;218187;1280;24270;-70
2022/04/13 18:35:49;;;;;;;15.70;9.40;;;;;;;12.35;43.76;99102.66;218444;1280;22566;-70
2022/04/13 18:40:53;;;;;;;18.80;10.80;;;;;;;12.21;44.10;99104.31;218590;1279;22582;-68
2022/04/13 18:45:58;;;;;;;19.90;12.80;;;;;;;12.06;44.29;99106.26;218695;1279;25406;-69
2022/04/13 18:51:05;;;;;;;17.30;10.60;;;;;;;11.88;44.76;99110.61;218708;1279;26409;-70
2022/04/13 18:56:11;;;;;;;13.40;9.70;;;;;;;11.66;45.33;99107.54;218467;1279;22541;-70
2022/04/13 19:01:15;;;;;;;14.80;8.80;;;;;;;11.45;45.51;99104.45;218529;1279;24250;-70
2022/04/13 19:06:20;;;;;;;16.10;11.00;;;;;;;11.24;45.64;99108.59;218875;1279;22730;-69
2022/04/13 19:11:28;;;;;;;17.30;10.20;;;;;;;11.06;45.89;99114.24;218554;1278;25419;-70
2022/04/13 19:16:35;;;;;;;15.10;10.00;;;;;;;10.91;46.19;99108.43;218294;1279;22580;-69
2022/04/13 19:21:40;;;;;;;17.00;9.50;;;;;;;10.77;45.95;99109.30;218822;1279;24267;-70
2022/04/13 19:26:45;;;;;;;17.00;10.20;;;;;;;10.66;46.06;99113.36;218260;1279;253573;-69
2022/04/13 19:31:48;;;;;;;16.10;10.40;;;;;;;10.50;46.22;99109.84;218338;1279;22592;-70
2022/04/13 19:36:58;;;;;;;14.20;11.00;;;;;;;10.36;46.45;99111.59;218935;1279;24334;-69
2022/04/13 19:42:06;;;;;;;15.80;10.10;;;;;;;10.21;46.58;99108.44;218456;1279;25258;-70
2022/04/13 19:47:10;;;;;;;16.30;10.10;;;;;;;10.06;46.95;99100.45;218678;1279;22624;-70
2022/04/13 19:52:14;;;;;;;15.40;10.70;;;;;;;9.94;47.01;99098.23;218311;1279;22544;-70
2022/04/13 19:57:19;;;;;;;19.90;13.10;;;;;;;9.82;47.14;99102.35;218521;1279;23078;-69
2022/04/13 20:02:22;;;;;;;17.10;12.00;;;;;;;9.69;47.41;99102.35;218478;1279;22653;-69
2022/04/13 20:07:26;;;;;;;18.20;11.50;;;;;;;9.56;47.66;99100.85;218458;1278;25265;-69
2022/04/13 20:12:30;;;;;;;15.90;10.10;;;;;;;9.46;47.81;99101.42;218472;1280;24422;-68
2022/04/13 20:17:33;;;;;;;16.90;10.20;;;;;;;9.38;47.73;99100.54;218478;1279;22704;-69
2022/04/13 20:22:38;;;;;;;16.30;10.00;;;;;;;9.31;47.87;99104.19;218717;1278;25358;-69
2022/04/13 20:27:42;;;;;;;15.70;10.60;;;;;;;9.19;48.00;99104.59;218399;1279;23317;-69
2022/04/13 20:32:45;;;;;;;19.60;11.90;;;;;;;9.06;47.96;99103.45;218173;1279;22573;-69
2022/04/13 20:37:57;;;;;;;18.10;10.70;;;;;;;8.93;47.83;99102.39;218463;1280;25547;-70
2022/04/13 20:43:07;;;;;;;19.00;11.00;;;;;;;8.81;47.98;99100.75;218515;1279;22567;-69
2022/04/13 20:48:22;;;;;;;18.60;11.40;;;;;;;8.70;48.01;99098.25;218410;1277;22630;-69
2022/04/13 20:53:25;;;;;;;16.00;9.80;;;;;;;8.59;48.04;99105.61;218377;1279;22717;-70
2022/04/13 20:58:30;;;;;;;15.90;9.60;;;;;;;8.54;47.92;99102.83;218548;1279;22574;-69
2022/04/13 21:03:33;;;;;;;14.70;8.50;;;;;;;8.51;47.78;99103.67;218555;1279;22614;-68
2022/04/13 21:08:36;;;;;;;13.40;8.50;;;;;;;8.48;47.70;99101.17;218623;1277;22582;-69
2022/04/13 21:13:39;;;;;;;14.10;9.10;;;;;;;8.42;47.49;99095.91;218666;1278;25387;-70
2022/04/13 21:18:42;;;;;;;15.00;9.60;;;;;;;8.35;47.78;99097.13;218996;1278;22559;-69
2022/04/13 21:23:46;;;;;;;13.70;9.30;;;;;;;8.28;47.78;99095.73;218371;1279;24158;-70
2022/04/13 21:28:50;;;;;;;15.50;9.60;;;;;;;8.20;47.85;99099.46;218590;1279;25263;-70
2022/04/13 21:33:53;;;;;;;15.40;9.40;;;;;;;8.12;47.47;99095.33;218888;1278;22728;-69
2022/04/13 21:38:56;;;;;;;16.00;9.70;;;;;;;8.03;47.67;99090.34;218499;1279;22564;-69
2022/04/13 21:43:59;;;;;;;16.70;9.30;;;;;;;7.95;47.65;99090.17;218621;1279;25429;-69
2022/04/13 21:49:05;;;;;;;15.50;9.30;;;;;;;7.87;47.70;99093.02;218626;1279;22584;-69
2022/04/13 21:54:08;;;;;;;15.60;8.90;;;;;;;7.79;47.43;99090.77;218350;1279;22541;-70
2022/04/13 21:59:13;;;;;;;15.30;8.30;;;;;;;7.67;47.54;99088.86;218657;1279;22537;-69
2022/04/13 22:04:17;;;;;;;15.70;8.90;;;;;;;7.60;47.74;99089.58;218384;1279;22579;-69
2022/04/13 22:09:25;;;;;;;16.60;8.80;;;;;;;7.55;47.95;99087.90;218686;1277;22938;-69
2022/04/13 22:14:37;;;;;;;15.60;8.60;;;;;;;7.49;47.86;99090.44;218382;1279;22507;-70
2022/04/13 22:19:40;;;;;;;15.50;8.90;;;;;;;7.42;48.12;99088.86;218512;1279;25550;-69
2022/04/13 22:24:43;;;;;;;14.90;7.80;;;;;;;7.34;48.43;99085.63;218478;1279;24837;-69
2022/04/13 22:29:50;;;;;;;13.00;8.20;;;;;;;7.26;48.36;99081.54;218486;1279;25489;-69
2022/04/13 22:34:53;;;;;;;14.60;8.90;;;;;;;7.18;48.48;99079.73;218486;1279;22591;-69
2022/04/13 22:39:56;;;;;;;15.20;8.50;;;;;;;7.13;48.38;99077.20;218322;1279;24233;-69
2022/04/13 22:44:59;;;;;;;14.00;8.70;;;;;;;7.08;48.91;99075.41;218509;1279;22579;-69
2022/04/13 22:50:07;;;;;;;16.30;9.40;;;;;;;7.00;49.02;99075.68;218477;1279;25420;-70
2022/04/13 22:55:10;;;;;;;15.20;8.90;;;;;;;6.92;49.23;99080.21;218538;1279;22635;-69
2022/04/13 23:00:15;;;;;;;15.80;8.90;;;;;;;6.85;48.92;99076.34;218741;1279;23849;-69
2022/04/13 23:05:18;;;;;;;17.20;9.60;;;;;;;6.79;49.25;99071.83;218325;1279;24372;-70
2022/04/13 23:10:21;;;;;;;16.10;9.40;;;;;;;6.75;49.21;99068.55;218607;1278;25331;-69
2022/04/13 23:15:24;;;;;;;16.30;9.10;;;;;;;6.72;49.30;99068.63;218455;1278;23903;-70
2022/04/13 23:20:27;;;;;;;15.70;9.20;;;;;;;6.69;49.84;99065.15;218401;1279;25352;-69